North Ferrisburg, Vermont
Current Conditions -  °F | °C
As of 8:54 PM on Wednesday 26 Nov 2014 (Local Time) from KBTV Reporting Station
Light Snow Light Snow  
Wind Chill: 20°   Ceiling: 1500
Heat Index: 29°   Visibility: 1.7mi
Dew Point: 26°   Wind: 10mph
Humidity: 89%   Direction: 340°NNW
Pressure: 30.02"   Gusts: NA
Location:  44.26°N, 73.21°W
Report Text: KBTV 270154Z 34009KT 1 3/4SM -SN BR SCT006 OVC015 M02/M03 A3002 RMK AO2 SLP168 SNINCR 1/6 P0003 T10171033
Loading
Personal Weather Stations






























Interactive Weather Map New forecast layout! Learn more

10-Day Weather Forecast

Advertisements
Track Severe Weather on mobile